Cowan, Indiana
Current Conditions -  °F | °C
As of 7:53 AM on Friday 24 Oct 2014 (Local Time) from KMIE Reporting Station
Clear Clear  
Wind Chill:   Ceiling: Unl
Heat Index:   Visibility: 10mi
Dew Point:   Wind: 6mph
Humidity: 82%   Direction: 180°S
Pressure: 30.1"   Gusts: NA
Location:  40.1286°N, 85.3767°W
Report Text: KMIE 241153Z 18005KT 10SM CLR 06/03 A3010 RMK AO2 SLP192 T00610033 10061 20028 58001
Loading
Personal Weather Stations






























Interactive Weather Map
Tropical Storm Tracking
New forecast layout! Learn more

10-Day Weather Forecast

Advertisements
Track Severe Weather on mobile